sensor_id;sensor_type;location;lat;lon;timestamp;P1;durP1;ratioP1;P2;durP2;ratioP2
18042;SDS011;9146;48.074;11.968;2022-08-14T00:00:07;5.43;;;4.30;;
18042;SDS011;9146;48.074;11.968;2022-08-14T00:02:35;6.57;;;5.67;;
18042;SDS011;9146;48.074;11.968;2022-08-14T00:05:03;6.23;;;5.73;;
18042;SDS011;9146;48.074;11.968;2022-08-14T00:07:30;4.60;;;4.20;;
18042;SDS011;9146;48.074;11.968;2022-08-14T00:09:59;5.47;;;4.97;;
18042;SDS011;9146;48.074;11.968;2022-08-14T00:12:26;6.30;;;5.03;;
18042;SDS011;9146;48.074;11.968;2022-08-14T00:14:53;5.07;;;4.53;;
18042;SDS011;9146;48.074;11.968;2022-08-14T00:17:22;6.37;;;4.77;;
18042;SDS011;9146;48.074;11.968;2022-08-14T00:19:50;5.50;;;4.73;;
18042;SDS011;9146;48.074;11.968;2022-08-14T00:22:17;5.60;;;4.37;;
18042;SDS011;9146;48.074;11.968;2022-08-14T00:24:44;5.90;;;4.67;;
18042;SDS011;9146;48.074;11.968;2022-08-14T00:27:11;5.87;;;5.30;;
18042;SDS011;9146;48.074;11.968;2022-08-14T00:29:38;5.63;;;4.67;;
18042;SDS011;9146;48.074;11.968;2022-08-14T00:32:05;6.57;;;4.90;;
18042;SDS011;9146;48.074;11.968;2022-08-14T00:34:34;4.40;;;4.07;;
18042;SDS011;9146;48.074;11.968;2022-08-14T00:37:01;5.20;;;4.70;;
18042;SDS011;9146;48.074;11.968;2022-08-14T00:39:29;5.10;;;4.03;;
18042;SDS011;9146;48.074;11.968;2022-08-14T00:41:56;5.90;;;4.90;;
18042;SDS011;9146;48.074;11.968;2022-08-14T00:44:23;4.13;;;3.83;;
18042;SDS011;9146;48.074;11.968;2022-08-14T00:46:54;4.80;;;4.40;;
18042;SDS011;9146;48.074;11.968;2022-08-14T00:49:21;4.60;;;4.20;;
18042;SDS011;9146;48.074;11.968;2022-08-14T00:51:49;4.30;;;4.00;;
18042;SDS011;9146;48.074;11.968;2022-08-14T00:54:16;5.60;;;4.40;;
18042;SDS011;9146;48.074;11.968;2022-08-14T00:56:43;4.87;;;4.27;;
18042;SDS011;9146;48.074;11.968;2022-08-14T00:59:10;4.40;;;4.10;;
18042;SDS011;9146;48.074;11.968;2022-08-14T01:01:37;4.40;;;4.00;;
18042;SDS011;9146;48.074;11.968;2022-08-14T01:04:04;5.07;;;4.60;;
18042;SDS011;9146;48.074;11.968;2022-08-14T01:06:32;4.80;;;4.40;;
18042;SDS011;9146;48.074;11.968;2022-08-14T01:09:02;4.70;;;4.30;;
18042;SDS011;9146;48.074;11.968;2022-08-14T01:11:29;5.43;;;4.93;;
18042;SDS011;9146;48.074;11.968;2022-08-14T01:13:57;5.63;;;4.57;;
18042;SDS011;9146;48.074;11.968;2022-08-14T01:16:25;5.43;;;4.93;;
18042;SDS011;9146;48.074;11.968;2022-08-14T01:18:54;4.30;;;3.90;;
18042;SDS011;9146;48.074;11.968;2022-08-14T01:21:41;4.00;;;3.70;;
18042;SDS011;9146;48.074;11.968;2022-08-14T01:24:10;5.20;;;4.70;;
18042;SDS011;9146;48.074;11.968;2022-08-14T01:26:39;4.40;;;4.10;;
18042;SDS011;9146;48.074;11.968;2022-08-14T01:29:06;4.30;;;3.90;;
18042;SDS011;9146;48.074;11.968;2022-08-14T01:31:33;4.00;;;3.70;;
18042;SDS011;9146;48.074;11.968;2022-08-14T01:34:03;4.50;;;4.10;;
18042;SDS011;9146;48.074;11.968;2022-08-14T01:36:31;3.73;;;3.43;;
18042;SDS011;9146;48.074;11.968;2022-08-14T01:39:04;4.47;;;4.00;;
18042;SDS011;9146;48.074;11.968;2022-08-14T01:41:32;4.70;;;4.30;;
18042;SDS011;9146;48.074;11.968;2022-08-14T01:44:05;4.40;;;4.07;;
18042;SDS011;9146;48.074;11.968;2022-08-14T01:46:37;5.03;;;4.53;;
18042;SDS011;9146;48.074;11.968;2022-08-14T01:49:07;3.63;;;3.10;;
18042;SDS011;9146;48.074;11.968;2022-08-14T01:51:36;4.83;;;4.43;;
18042;SDS011;9146;48.074;11.968;2022-08-14T01:54:06;7.60;;;4.57;;
18042;SDS011;9146;48.074;11.968;2022-08-14T01:56:35;7.43;;;5.50;;
18042;SDS011;9146;48.074;11.968;2022-08-14T01:59:04;6.23;;;5.63;;
18042;SDS011;9146;48.074;11.968;2022-08-14T02:01:32;7.10;;;5.70;;
18042;SDS011;9146;48.074;11.968;2022-08-14T02:04:01;5.03;;;4.60;;
18042;SDS011;9146;48.074;11.968;2022-08-14T02:06:29;6.80;;;6.20;;
18042;SDS011;9146;48.074;11.968;2022-08-14T02:08:57;5.70;;;5.20;;
18042;SDS011;9146;48.074;11.968;2022-08-14T02:11:28;4.90;;;4.50;;
18042;SDS011;9146;48.074;11.968;2022-08-14T02:13:57;6.30;;;5.50;;
18042;SDS011;9146;48.074;11.968;2022-08-14T02:16:26;5.47;;;5.07;;
18042;SDS011;9146;48.074;11.968;2022-08-14T02:18:57;4.67;;;4.37;;
18042;SDS011;9146;48.074;11.968;2022-08-14T02:21:26;5.33;;;4.83;;
18042;SDS011;9146;48.074;11.968;2022-08-14T02:23:55;5.27;;;4.87;;
18042;SDS011;9146;48.074;11.968;2022-08-14T02:26:24;5.03;;;4.53;;
18042;SDS011;9146;48.074;11.968;2022-08-14T02:28:55;6.90;;;4.80;;
18042;SDS011;9146;48.074;11.968;2022-08-14T02:31:24;6.60;;;5.73;;
18042;SDS011;9146;48.074;11.968;2022-08-14T02:33:54;6.93;;;5.30;;
18042;SDS011;9146;48.074;11.968;2022-08-14T02:36:21;5.33;;;4.77;;
18042;SDS011;9146;48.074;11.968;2022-08-14T02:38:48;5.90;;;5.40;;
18042;SDS011;9146;48.074;11.968;2022-08-14T02:41:15;5.97;;;5.33;;
18042;SDS011;9146;48.074;11.968;2022-08-14T02:43:42;7.00;;;6.40;;
18042;SDS011;9146;48.074;11.968;2022-08-14T02:46:10;5.77;;;5.27;;
18042;SDS011;9146;48.074;11.968;2022-08-14T02:48:38;6.77;;;6.17;;
18042;SDS011;9146;48.074;11.968;2022-08-14T02:51:07;6.73;;;6.00;;
18042;SDS011;9146;48.074;11.968;2022-08-14T02:53:36;6.20;;;5.60;;
18042;SDS011;9146;48.074;11.968;2022-08-14T02:56:06;6.70;;;6.10;;
18042;SDS011;9146;48.074;11.968;2022-08-14T02:58:36;6.13;;;5.60;;
18042;SDS011;9146;48.074;11.968;2022-08-14T03:01:05;6.93;;;5.13;;
18042;SDS011;9146;48.074;11.968;2022-08-14T03:03:34;5.00;;;4.60;;
18042;SDS011;9146;48.074;11.968;2022-08-14T03:06:02;7.87;;;5.87;;
18042;SDS011;9146;48.074;11.968;2022-08-14T03:08:31;5.73;;;5.23;;
18042;SDS011;9146;48.074;11.968;2022-08-14T03:10:59;6.60;;;6.00;;
18042;SDS011;9146;48.074;11.968;2022-08-14T03:13:30;5.37;;;4.97;;
18042;SDS011;9146;48.074;11.968;2022-08-14T03:16:00;9.83;;;5.23;;
18042;SDS011;9146;48.074;11.968;2022-08-14T03:18:27;4.40;;;4.00;;
18042;SDS011;9146;48.074;11.968;2022-08-14T03:20:57;4.10;;;3.80;;
18042;SDS011;9146;48.074;11.968;2022-08-14T03:23:24;5.53;;;5.03;;
18042;SDS011;9146;48.074;11.968;2022-08-14T03:25:51;5.60;;;4.97;;
18042;SDS011;9146;48.074;11.968;2022-08-14T03:28:18;5.90;;;5.20;;
18042;SDS011;9146;48.074;11.968;2022-08-14T03:30:51;5.93;;;4.60;;
18042;SDS011;9146;48.074;11.968;2022-08-14T03:33:18;5.27;;;4.87;;
18042;SDS011;9146;48.074;11.968;2022-08-14T03:35:45;5.07;;;4.57;;
18042;SDS011;9146;48.074;11.968;2022-08-14T03:38:13;5.40;;;4.90;;
18042;SDS011;9146;48.074;11.968;2022-08-14T03:40:43;5.00;;;4.60;;
18042;SDS011;9146;48.074;11.968;2022-08-14T03:43:11;5.13;;;4.73;;
18042;SDS011;9146;48.074;11.968;2022-08-14T03:45:39;4.73;;;4.43;;
18042;SDS011;9146;48.074;11.968;2022-08-14T03:48:09;5.87;;;5.37;;
18042;SDS011;9146;48.074;11.968;2022-08-14T03:50:39;6.83;;;6.23;;
18042;SDS011;9146;48.074;11.968;2022-08-14T03:53:06;5.37;;;4.87;;
18042;SDS011;9146;48.074;11.968;2022-08-14T03:55:36;5.73;;;5.23;;
18042;SDS011;9146;48.074;11.968;2022-08-14T03:58:04;5.70;;;5.27;;
18042;SDS011;9146;48.074;11.968;2022-08-14T04:00:31;6.47;;;5.87;;
18042;SDS011;9146;48.074;11.968;2022-08-14T04:02:59;6.37;;;5.60;;
18042;SDS011;9146;48.074;11.968;2022-08-14T04:05:27;5.67;;;5.00;;
18042;SDS011;9146;48.074;11.968;2022-08-14T04:07:54;5.20;;;4.80;;
18042;SDS011;9146;48.074;11.968;2022-08-14T04:10:22;4.53;;;4.13;;
18042;SDS011;9146;48.074;11.968;2022-08-14T04:12:51;4.90;;;4.60;;
18042;SDS011;9146;48.074;11.968;2022-08-14T04:15:18;4.37;;;3.97;;
18042;SDS011;9146;48.074;11.968;2022-08-14T04:17:45;4.70;;;4.30;;
18042;SDS011;9146;48.074;11.968;2022-08-14T04:20:12;4.67;;;4.27;;
18042;SDS011;9146;48.074;11.968;2022-08-14T04:22:39;4.50;;;4.10;;
18042;SDS011;9146;48.074;11.968;2022-08-14T04:25:07;4.93;;;4.53;;
18042;SDS011;9146;48.074;11.968;2022-08-14T04:27:35;5.00;;;4.60;;
18042;SDS011;9146;48.074;11.968;2022-08-14T04:30:04;4.80;;;4.40;;
18042;SDS011;9146;48.074;11.968;2022-08-14T04:32:32;5.00;;;4.50;;
18042;SDS011;9146;48.074;11.968;2022-08-14T04:34:59;4.87;;;4.47;;
18042;SDS011;9146;48.074;11.968;2022-08-14T04:37:26;6.37;;;5.70;;
18042;SDS011;9146;48.074;11.968;2022-08-14T04:40:10;5.40;;;4.90;;
18042;SDS011;9146;48.074;11.968;2022-08-14T04:42:55;8.40;;;4.67;;
18042;SDS011;9146;48.074;11.968;2022-08-14T04:45:41;6.50;;;4.63;;
18042;SDS011;9146;48.074;11.968;2022-08-14T04:48:09;5.43;;;4.93;;
18042;SDS011;9146;48.074;11.968;2022-08-14T04:50:39;5.80;;;5.27;;
18042;SDS011;9146;48.074;11.968;2022-08-14T04:53:09;6.30;;;5.80;;
18042;SDS011;9146;48.074;11.968;2022-08-14T04:55:38;5.67;;;5.10;;
18042;SDS011;9146;48.074;11.968;2022-08-14T04:58:05;5.13;;;4.70;;
18042;SDS011;9146;48.074;11.968;2022-08-14T05:00:33;5.50;;;5.10;;
18042;SDS011;9146;48.074;11.968;2022-08-14T05:03:01;5.67;;;5.20;;
18042;SDS011;9146;48.074;11.968;2022-08-14T05:05:30;5.67;;;5.17;;
18042;SDS011;9146;48.074;11.968;2022-08-14T05:08:02;5.80;;;5.30;;
18042;SDS011;9146;48.074;11.968;2022-08-14T05:10:34;5.77;;;5.27;;
18042;SDS011;9146;48.074;11.968;2022-08-14T05:13:02;5.50;;;5.00;;
18042;SDS011;9146;48.074;11.968;2022-08-14T05:15:31;7.03;;;4.97;;
18042;SDS011;9146;48.074;11.968;2022-08-14T05:18:02;5.30;;;4.80;;
18042;SDS011;9146;48.074;11.968;2022-08-14T05:20:36;5.23;;;4.73;;
18042;SDS011;9146;48.074;11.968;2022-08-14T05:23:03;4.63;;;4.27;;
18042;SDS011;9146;48.074;11.968;2022-08-14T05:25:32;5.30;;;4.80;;
18042;SDS011;9146;48.074;11.968;2022-08-14T05:28:04;6.00;;;5.40;;
18042;SDS011;9146;48.074;11.968;2022-08-14T05:30:32;5.40;;;4.63;;
18042;SDS011;9146;48.074;11.968;2022-08-14T05:32:59;5.47;;;5.00;;
18042;SDS011;9146;48.074;11.968;2022-08-14T05:35:28;4.97;;;4.57;;
18042;SDS011;9146;48.074;11.968;2022-08-14T05:37:56;4.90;;;4.50;;
18042;SDS011;9146;48.074;11.968;2022-08-14T05:40:24;4.93;;;4.50;;
18042;SDS011;9146;48.074;11.968;2022-08-14T05:42:51;4.77;;;4.40;;
18042;SDS011;9146;48.074;11.968;2022-08-14T05:45:18;5.37;;;4.87;;
18042;SDS011;9146;48.074;11.968;2022-08-14T05:47:46;5.03;;;4.53;;
18042;SDS011;9146;48.074;11.968;2022-08-14T05:50:14;4.83;;;4.43;;
18042;SDS011;9146;48.074;11.968;2022-08-14T05:52:41;6.60;;;4.60;;
18042;SDS011;9146;48.074;11.968;2022-08-14T05:55:09;5.27;;;4.87;;
18042;SDS011;9146;48.074;11.968;2022-08-14T05:57:46;5.17;;;4.70;;
18042;SDS011;9146;48.074;11.968;2022-08-14T06:00:14;4.93;;;4.53;;
18042;SDS011;9146;48.074;11.968;2022-08-14T06:02:45;4.77;;;4.47;;
18042;SDS011;9146;48.074;11.968;2022-08-14T06:05:13;5.30;;;4.80;;
18042;SDS011;9146;48.074;11.968;2022-08-14T06:07:41;4.53;;;4.23;;
18042;SDS011;9146;48.074;11.968;2022-08-14T06:10:09;5.50;;;4.90;;
18042;SDS011;9146;48.074;11.968;2022-08-14T06:12:36;6.80;;;6.10;;
18042;SDS011;9146;48.074;11.968;2022-08-14T06:15:05;5.57;;;5.00;;
18042;SDS011;9146;48.074;11.968;2022-08-14T06:17:42;4.60;;;4.30;;
18042;SDS011;9146;48.074;11.968;2022-08-14T06:20:10;5.03;;;4.63;;
18042;SDS011;9146;48.074;11.968;2022-08-14T06:22:40;6.13;;;5.53;;
18042;SDS011;9146;48.074;11.968;2022-08-14T06:25:08;5.30;;;4.80;;
18042;SDS011;9146;48.074;11.968;2022-08-14T06:27:36;5.83;;;4.57;;
18042;SDS011;9146;48.074;11.968;2022-08-14T06:30:04;5.63;;;4.60;;
18042;SDS011;9146;48.074;11.968;2022-08-14T06:32:33;6.10;;;5.07;;
18042;SDS011;9146;48.074;11.968;2022-08-14T06:35:00;8.90;;;4.73;;
18042;SDS011;9146;48.074;11.968;2022-08-14T06:37:28;5.30;;;4.90;;
18042;SDS011;9146;48.074;11.968;2022-08-14T06:40:07;4.80;;;4.40;;
18042;SDS011;9146;48.074;11.968;2022-08-14T06:42:35;5.63;;;5.10;;
18042;SDS011;9146;48.074;11.968;2022-08-14T06:45:02;4.90;;;4.50;;
18042;SDS011;9146;48.074;11.968;2022-08-14T06:47:32;4.77;;;4.23;;
18042;SDS011;9146;48.074;11.968;2022-08-14T06:49:59;4.63;;;4.23;;
18042;SDS011;9146;48.074;11.968;2022-08-14T06:52:26;6.63;;;4.50;;
18042;SDS011;9146;48.074;11.968;2022-08-14T06:54:53;4.07;;;3.77;;
18042;SDS011;9146;48.074;11.968;2022-08-14T06:57:22;5.47;;;4.40;;
18042;SDS011;9146;48.074;11.968;2022-08-14T06:59:49;6.43;;;4.50;;
18042;SDS011;9146;48.074;11.968;2022-08-14T07:02:17;4.83;;;4.43;;
18042;SDS011;9146;48.074;11.968;2022-08-14T07:05:01;4.00;;;3.70;;
18042;SDS011;9146;48.074;11.968;2022-08-14T07:07:46;3.67;;;3.40;;
18042;SDS011;9146;48.074;11.968;2022-08-14T07:10:12;4.30;;;3.90;;
18042;SDS011;9146;48.074;11.968;2022-08-14T07:12:41;3.63;;;3.37;;
18042;SDS011;9146;48.074;11.968;2022-08-14T07:15:08;3.77;;;3.47;;
18042;SDS011;9146;48.074;11.968;2022-08-14T07:17:42;4.60;;;4.20;;
18042;SDS011;9146;48.074;11.968;2022-08-14T07:20:10;4.00;;;3.70;;
18042;SDS011;9146;48.074;11.968;2022-08-14T07:22:37;4.00;;;3.60;;
18042;SDS011;9146;48.074;11.968;2022-08-14T07:25:04;3.30;;;3.10;;
18042;SDS011;9146;48.074;11.968;2022-08-14T07:27:31;3.10;;;2.90;;
18042;SDS011;9146;48.074;11.968;2022-08-14T07:30:00;4.80;;;3.73;;
18042;SDS011;9146;48.074;11.968;2022-08-14T07:32:28;4.23;;;3.93;;
18042;SDS011;9146;48.074;11.968;2022-08-14T07:34:55;3.97;;;3.63;;
18042;SDS011;9146;48.074;11.968;2022-08-14T07:37:22;4.10;;;3.80;;
18042;SDS011;9146;48.074;11.968;2022-08-14T07:39:49;4.60;;;4.20;;
18042;SDS011;9146;48.074;11.968;2022-08-14T07:42:16;3.80;;;3.43;;
18042;SDS011;9146;48.074;11.968;2022-08-14T07:44:43;3.50;;;3.20;;
18042;SDS011;9146;48.074;11.968;2022-08-14T07:47:12;3.77;;;3.50;;
18042;SDS011;9146;48.074;11.968;2022-08-14T07:49:40;4.10;;;3.80;;
18042;SDS011;9146;48.074;11.968;2022-08-14T07:52:07;3.20;;;3.00;;
18042;SDS011;9146;48.074;11.968;2022-08-14T07:54:34;3.80;;;3.50;;
18042;SDS011;9146;48.074;11.968;2022-08-14T07:57:01;4.43;;;4.10;;
18042;SDS011;9146;48.074;11.968;2022-08-14T07:59:28;4.00;;;3.70;;
18042;SDS011;9146;48.074;11.968;2022-08-14T08:01:56;4.53;;;4.10;;
18042;SDS011;9146;48.074;11.968;2022-08-14T08:04:25;4.27;;;3.90;;
18042;SDS011;9146;48.074;11.968;2022-08-14T08:06:54;4.07;;;3.70;;
18042;SDS011;9146;48.074;11.968;2022-08-14T08:09:21;4.17;;;3.83;;
18042;SDS011;9146;48.074;11.968;2022-08-14T08:11:51;3.80;;;3.60;;
18042;SDS011;9146;48.074;11.968;2022-08-14T08:14:20;4.43;;;4.10;;
18042;SDS011;9146;48.074;11.968;2022-08-14T08:16:47;4.30;;;4.00;;
18042;SDS011;9146;48.074;11.968;2022-08-14T08:19:14;3.77;;;3.47;;
18042;SDS011;9146;48.074;11.968;2022-08-14T08:21:44;7.97;;;3.53;;
18042;SDS011;9146;48.074;11.968;2022-08-14T08:24:12;3.30;;;3.10;;
18042;SDS011;9146;48.074;11.968;2022-08-14T08:26:40;3.50;;;3.30;;
18042;SDS011;9146;48.074;11.968;2022-08-14T08:29:07;4.03;;;3.53;;
18042;SDS011;9146;48.074;11.968;2022-08-14T08:31:44;7.67;;;3.40;;
18042;SDS011;9146;48.074;11.968;2022-08-14T08:34:14;4.27;;;2.90;;
18042;SDS011;9146;48.074;11.968;2022-08-14T08:36:42;3.30;;;3.10;;
18042;SDS011;9146;48.074;11.968;2022-08-14T08:39:11;4.80;;;3.60;;
18042;SDS011;9146;48.074;11.968;2022-08-14T08:41:39;4.20;;;3.90;;
18042;SDS011;9146;48.074;11.968;2022-08-14T08:44:07;4.37;;;3.70;;
18042;SDS011;9146;48.074;11.968;2022-08-14T08:46:34;3.77;;;3.50;;
18042;SDS011;9146;48.074;11.968;2022-08-14T08:49:01;4.23;;;3.57;;
18042;SDS011;9146;48.074;11.968;2022-08-14T08:51:29;3.17;;;2.97;;
18042;SDS011;9146;48.074;11.968;2022-08-14T08:54:00;3.60;;;3.30;;
18042;SDS011;9146;48.074;11.968;2022-08-14T08:56:35;3.70;;;3.40;;
18042;SDS011;9146;48.074;11.968;2022-08-14T08:59:16;4.00;;;3.60;;
18042;SDS011;9146;48.074;11.968;2022-08-14T09:01:48;4.70;;;4.20;;
18042;SDS011;9146;48.074;11.968;2022-08-14T09:04:16;5.20;;;4.57;;
18042;SDS011;9146;48.074;11.968;2022-08-14T09:06:44;3.78;;;3.47;;
18042;SDS011;9146;48.074;11.968;2022-08-14T09:09:20;4.50;;;3.90;;
18042;SDS011;9146;48.074;11.968;2022-08-14T09:11:50;5.93;;;4.60;;
18042;SDS011;9146;48.074;11.968;2022-08-14T09:14:18;4.30;;;3.90;;
18042;SDS011;9146;48.074;11.968;2022-08-14T09:16:45;8.07;;;6.83;;
18042;SDS011;9146;48.074;11.968;2022-08-14T09:19:14;5.45;;;4.93;;
18042;SDS011;9146;48.074;11.968;2022-08-14T09:21:41;4.80;;;4.40;;
18042;SDS011;9146;48.074;11.968;2022-08-14T09:24:10;4.65;;;4.25;;
18042;SDS011;9146;48.074;11.968;2022-08-14T09:26:38;4.27;;;3.97;;
18042;SDS011;9146;48.074;11.968;2022-08-14T09:29:07;4.43;;;4.07;;
18042;SDS011;9146;48.074;11.968;2022-08-14T09:31:35;3.77;;;3.53;;
18042;SDS011;9146;48.074;11.968;2022-08-14T09:34:11;4.03;;;3.63;;
18042;SDS011;9146;48.074;11.968;2022-08-14T09:36:48;3.97;;;3.60;;
18042;SDS011;9146;48.074;11.968;2022-08-14T09:39:41;3.47;;;3.27;;
18042;SDS011;9146;48.074;11.968;2022-08-14T09:42:24;3.53;;;3.33;;
18042;SDS011;9146;48.074;11.968;2022-08-14T09:45:08;4.13;;;3.83;;
18042;SDS011;9146;48.074;11.968;2022-08-14T09:47:39;4.10;;;3.70;;
18042;SDS011;9146;48.074;11.968;2022-08-14T09:50:18;4.20;;;3.90;;
18042;SDS011;9146;48.074;11.968;2022-08-14T09:52:48;3.97;;;3.67;;
18042;SDS011;9146;48.074;11.968;2022-08-14T09:55:17;3.93;;;3.63;;
18042;SDS011;9146;48.074;11.968;2022-08-14T09:57:45;4.40;;;4.10;;
18042;SDS011;9146;48.074;11.968;2022-08-14T10:00:14;4.13;;;3.73;;
18042;SDS011;9146;48.074;11.968;2022-08-14T10:02:52;3.63;;;3.33;;
18042;SDS011;9146;48.074;11.968;2022-08-14T10:05:28;5.23;;;3.53;;
18042;SDS011;9146;48.074;11.968;2022-08-14T10:07:58;5.37;;;4.00;;
18042;SDS011;9146;48.074;11.968;2022-08-14T10:10:27;4.83;;;4.03;;
18042;SDS011;9146;48.074;11.968;2022-08-14T10:12:56;5.67;;;5.17;;
18042;SDS011;9146;48.074;11.968;2022-08-14T10:15:27;4.80;;;4.40;;
18042;SDS011;9146;48.074;11.968;2022-08-14T10:18:06;4.20;;;3.90;;
18042;SDS011;9146;48.074;11.968;2022-08-14T10:20:35;4.20;;;3.70;;
18042;SDS011;9146;48.074;11.968;2022-08-14T10:23:12;4.10;;;3.70;;
18042;SDS011;9146;48.074;11.968;2022-08-14T10:25:41;4.00;;;3.57;;
18042;SDS011;9146;48.074;11.968;2022-08-14T10:28:10;5.03;;;3.50;;
18042;SDS011;9146;48.074;11.968;2022-08-14T10:30:41;4.00;;;3.70;;
18042;SDS011;9146;48.074;11.968;2022-08-14T10:33:22;5.80;;;5.30;;
18042;SDS011;9146;48.074;11.968;2022-08-14T10:35:50;5.00;;;4.60;;
18042;SDS011;9146;48.074;11.968;2022-08-14T10:38:27;4.43;;;4.13;;
18042;SDS011;9146;48.074;11.968;2022-08-14T10:40:56;3.80;;;3.37;;
18042;SDS011;9146;48.074;11.968;2022-08-14T10:43:37;3.77;;;3.50;;
18042;SDS011;9146;48.074;11.968;2022-08-14T10:46:13;5.77;;;3.70;;
18042;SDS011;9146;48.074;11.968;2022-08-14T10:48:41;3.97;;;3.67;;
18042;SDS011;9146;48.074;11.968;2022-08-14T10:51:23;3.80;;;3.50;;
18042;SDS011;9146;48.074;11.968;2022-08-14T10:53:53;4.40;;;4.10;;
18042;SDS011;9146;48.074;11.968;2022-08-14T10:56:27;3.90;;;3.60;;
18042;SDS011;9146;48.074;11.968;2022-08-14T10:58:59;9.23;;;4.20;;
18042;SDS011;9146;48.074;11.968;2022-08-14T11:01:30;3.53;;;3.33;;
18042;SDS011;9146;48.074;11.968;2022-08-14T11:03:58;3.60;;;3.40;;
18042;SDS011;9146;48.074;11.968;2022-08-14T11:06:26;4.57;;;3.50;;
18042;SDS011;9146;48.074;11.968;2022-08-14T11:08:55;3.40;;;3.20;;
18042;SDS011;9146;48.074;11.968;2022-08-14T11:11:23;3.20;;;3.00;;
18042;SDS011;9146;48.074;11.968;2022-08-14T11:13:53;3.70;;;3.40;;
18042;SDS011;9146;48.074;11.968;2022-08-14T11:16:21;3.70;;;3.50;;
18042;SDS011;9146;48.074;11.968;2022-08-14T11:18:53;3.93;;;2.93;;
18042;SDS011;9146;48.074;11.968;2022-08-14T11:21:21;3.80;;;3.50;;
18042;SDS011;9146;48.074;11.968;2022-08-14T11:23:48;3.17;;;2.97;;
18042;SDS011;9146;48.074;11.968;2022-08-14T11:26:16;3.77;;;3.57;;
18042;SDS011;9146;48.074;11.968;2022-08-14T11:28:45;7.57;;;3.80;;
18042;SDS011;9146;48.074;11.968;2022-08-14T11:31:13;3.87;;;3.57;;
18042;SDS011;9146;48.074;11.968;2022-08-14T11:33:41;3.77;;;3.47;;
18042;SDS011;9146;48.074;11.968;2022-08-14T11:36:10;3.27;;;2.93;;
18042;SDS011;9146;48.074;11.968;2022-08-14T11:38:38;3.40;;;3.07;;
18042;SDS011;9146;48.074;11.968;2022-08-14T11:41:07;2.70;;;2.50;;
18042;SDS011;9146;48.074;11.968;2022-08-14T11:43:37;3.70;;;3.40;;
18042;SDS011;9146;48.074;11.968;2022-08-14T11:46:05;3.50;;;3.20;;
18042;SDS011;9146;48.074;11.968;2022-08-14T11:48:43;3.80;;;3.50;;
18042;SDS011;9146;48.074;11.968;2022-08-14T11:51:13;3.70;;;3.40;;
18042;SDS011;9146;48.074;11.968;2022-08-14T11:53:49;3.53;;;3.23;;
18042;SDS011;9146;48.074;11.968;2022-08-14T11:56:18;3.27;;;3.07;;
18042;SDS011;9146;48.074;11.968;2022-08-14T11:58:48;3.93;;;3.33;;
18042;SDS011;9146;48.074;11.968;2022-08-14T12:01:22;3.20;;;3.00;;
18042;SDS011;9146;48.074;11.968;2022-08-14T12:03:51;3.73;;;3.43;;
18042;SDS011;9146;48.074;11.968;2022-08-14T12:06:21;3.50;;;2.87;;
18042;SDS011;9146;48.074;11.968;2022-08-14T12:08:48;3.30;;;3.10;;
18042;SDS011;9146;48.074;11.968;2022-08-14T12:11:18;3.43;;;3.20;;
18042;SDS011;9146;48.074;11.968;2022-08-14T12:13:46;3.20;;;3.00;;
18042;SDS011;9146;48.074;11.968;2022-08-14T12:16:13;2.70;;;2.60;;
18042;SDS011;9146;48.074;11.968;2022-08-14T12:18:41;3.20;;;3.00;;
18042;SDS011;9146;48.074;11.968;2022-08-14T12:21:13;2.97;;;2.63;;
18042;SDS011;9146;48.074;11.968;2022-08-14T12:23:43;2.70;;;2.50;;
18042;SDS011;9146;48.074;11.968;2022-08-14T12:26:12;2.90;;;2.70;;
18042;SDS011;9146;48.074;11.968;2022-08-14T12:28:41;3.40;;;3.13;;
18042;SDS011;9146;48.074;11.968;2022-08-14T12:31:12;2.90;;;2.70;;
18042;SDS011;9146;48.074;11.968;2022-08-14T12:33:54;3.90;;;3.60;;
18042;SDS011;9146;48.074;11.968;2022-08-14T12:36:23;3.50;;;2.90;;
18042;SDS011;9146;48.074;11.968;2022-08-14T12:38:56;3.43;;;3.23;;
18042;SDS011;9146;48.074;11.968;2022-08-14T12:41:24;2.97;;;2.77;;
18042;SDS011;9146;48.074;11.968;2022-08-14T12:43:55;3.13;;;2.93;;
18042;SDS011;9146;48.074;11.968;2022-08-14T12:46:26;2.57;;;2.47;;
18042;SDS011;9146;48.074;11.968;2022-08-14T12:48:55;3.00;;;2.70;;
18042;SDS011;9146;48.074;11.968;2022-08-14T12:51:24;2.63;;;2.43;;
18042;SDS011;9146;48.074;11.968;2022-08-14T12:53:53;2.80;;;2.60;;
18042;SDS011;9146;48.074;11.968;2022-08-14T12:56:22;3.30;;;3.10;;
18042;SDS011;9146;48.074;11.968;2022-08-14T12:58:51;3.33;;;3.07;;
18042;SDS011;9146;48.074;11.968;2022-08-14T13:01:20;3.03;;;2.83;;
18042;SDS011;9146;48.074;11.968;2022-08-14T13:03:49;3.73;;;3.43;;
18042;SDS011;9146;48.074;11.968;2022-08-14T13:06:18;3.23;;;3.00;;
18042;SDS011;9146;48.074;11.968;2022-08-14T13:08:49;3.50;;;3.20;;
18042;SDS011;9146;48.074;11.968;2022-08-14T13:11:19;3.50;;;3.30;;
18042;SDS011;9146;48.074;11.968;2022-08-14T13:13:49;3.47;;;3.20;;
18042;SDS011;9146;48.074;11.968;2022-08-14T13:16:23;3.17;;;2.97;;
18042;SDS011;9146;48.074;11.968;2022-08-14T13:18:53;3.10;;;2.90;;
18042;SDS011;9146;48.074;11.968;2022-08-14T13:21:25;3.17;;;2.97;;
18042;SDS011;9146;48.074;11.968;2022-08-14T13:23:53;2.90;;;2.70;;
18042;SDS011;9146;48.074;11.968;2022-08-14T13:26:24;2.37;;;2.27;;
18042;SDS011;9146;48.074;11.968;2022-08-14T13:28:52;2.77;;;2.57;;
18042;SDS011;9146;48.074;11.968;2022-08-14T13:31:19;2.53;;;2.33;;
18042;SDS011;9146;48.074;11.968;2022-08-14T13:33:49;2.57;;;2.43;;
18042;SDS011;9146;48.074;11.968;2022-08-14T13:36:16;2.60;;;2.50;;
18042;SDS011;9146;48.074;11.968;2022-08-14T13:38:43;2.80;;;2.60;;
18042;SDS011;9146;48.074;11.968;2022-08-14T13:41:14;2.70;;;2.50;;
18042;SDS011;9146;48.074;11.968;2022-08-14T13:43:46;3.43;;;3.23;;
18042;SDS011;9146;48.074;11.968;2022-08-14T13:46:15;2.73;;;2.50;;
18042;SDS011;9146;48.074;11.968;2022-08-14T13:48:44;2.77;;;2.57;;
18042;SDS011;9146;48.074;11.968;2022-08-14T13:51:12;2.63;;;2.50;;
18042;SDS011;9146;48.074;11.968;2022-08-14T13:53:44;4.07;;;3.20;;
18042;SDS011;9146;48.074;11.968;2022-08-14T13:56:12;2.70;;;2.50;;
18042;SDS011;9146;48.074;11.968;2022-08-14T13:58:41;2.60;;;2.23;;
18042;SDS011;9146;48.074;11.968;2022-08-14T14:01:15;3.10;;;2.90;;
18042;SDS011;9146;48.074;11.968;2022-08-14T14:03:43;2.80;;;2.60;;
18042;SDS011;9146;48.074;11.968;2022-08-14T14:06:12;3.17;;;2.97;;
18042;SDS011;9146;48.074;11.968;2022-08-14T14:08:41;3.57;;;3.27;;
18042;SDS011;9146;48.074;11.968;2022-08-14T14:11:13;3.10;;;2.90;;
18042;SDS011;9146;48.074;11.968;2022-08-14T14:13:42;3.10;;;2.70;;
18042;SDS011;9146;48.074;11.968;2022-08-14T14:16:09;3.07;;;2.87;;
18042;SDS011;9146;48.074;11.968;2022-08-14T14:18:38;3.10;;;2.90;;
18042;SDS011;9146;48.074;11.968;2022-08-14T14:21:05;2.40;;;2.30;;
18042;SDS011;9146;48.074;11.968;2022-08-14T14:23:33;3.23;;;3.03;;
18042;SDS011;9146;48.074;11.968;2022-08-14T14:26:01;3.03;;;2.83;;
18042;SDS011;9146;48.074;11.968;2022-08-14T14:28:30;2.90;;;2.17;;
18042;SDS011;9146;48.074;11.968;2022-08-14T14:30:58;2.40;;;2.20;;
18042;SDS011;9146;48.074;11.968;2022-08-14T14:33:28;3.10;;;2.90;;
18042;SDS011;9146;48.074;11.968;2022-08-14T14:36:00;2.30;;;2.20;;
18042;SDS011;9146;48.074;11.968;2022-08-14T14:38:28;2.80;;;2.60;;
18042;SDS011;9146;48.074;11.968;2022-08-14T14:40:58;2.57;;;2.37;;
18042;SDS011;9146;48.074;11.968;2022-08-14T14:43:26;3.00;;;2.80;;
18042;SDS011;9146;48.074;11.968;2022-08-14T14:45:54;2.70;;;2.50;;
18042;SDS011;9146;48.074;11.968;2022-08-14T14:48:21;3.00;;;2.80;;
18042;SDS011;9146;48.074;11.968;2022-08-14T14:50:48;3.90;;;3.20;;
18042;SDS011;9146;48.074;11.968;2022-08-14T14:53:18;3.13;;;2.83;;
18042;SDS011;9146;48.074;11.968;2022-08-14T14:55:46;3.67;;;3.30;;
18042;SDS011;9146;48.074;11.968;2022-08-14T14:58:13;2.57;;;2.47;;
18042;SDS011;9146;48.074;11.968;2022-08-14T15:00:42;3.17;;;2.87;;